• Join FlightAware (Why Join?)
  • Login
  • US Flag 
11:17AM EDT


 

Airport Tracker/Info


-or-


 

Live Flight TrackerFlight Track Log ✈ CNS128 ✈ 26-Feb-2014 ✈ KLGA - KBED

Flight Track Log - Related Links

Times and Time Zones

All times are in EST time to prevent confusion due to time zone crossing. See the CNS128 flight status page for this flight to view local times or setup timezone preferences in your user account.

Time Position Orientation Groundspeed Altitude Reporting Facility
EST Latitude Longitude Course Direction KTS MPH feet Rate Location/Type
10:22PM 40.8000 -73.8667 56° Northeast 105 121 1,300  Level New York TRACON
10:23PM 40.8167 -73.8500 37° Northeast 126 145 3,400 1,800 Climbing New York TRACON
10:24PM 40.8500 -73.8167 37° Northeast 152 175 4,900 1,560 Climbing New York TRACON
10:25PM 40.8833 -73.7833 37° Northeast 174 200 6,400 1,260 Climbing New York TRACON
10:27PM 40.9486 -73.6622 54° Northeast 191 220 8,800 960 Climbing Boston Center
10:28PM 41.0018 -73.5964 56° Northeast  Level FlightAware Approximate
10:28PM 41.0028 -73.5994 41° Northeast 224 258 9,600  Level Boston Center
10:29PM 41.0492 -73.5428 43° Northeast 228 262 10,700 1,020 Climbing Boston Center
10:30PM 41.0983 -73.4842 42° Northeast 236 272 11,700 1,020 Climbing Boston Center
10:32PM 41.1514 -73.4186 43° Northeast 242 278 12,800 600 Climbing Boston Center
10:33PM 41.2067 -73.3514 42° Northeast 263 303 13,000 60 Climbing Boston Center
10:34PM 41.2669 -73.2778 43° Northeast 281 323 13,000  Level Boston Center
10:35PM 41.3250 -73.1978 46° Northeast 300 345 13,000  Level Boston Center
10:36PM 41.3686 -73.1008 59° Northeast 305 351 13,000  Level Boston Center
10:37PM 41.4150 -73.0072 57° Northeast 304 350 13,000  Level Boston Center
10:38PM 41.4639 -72.9069 57° Northeast 302 348 13,000  Level Boston Center
10:39PM 41.5103 -72.8139 56° Northeast 302 348 13,000  Level Boston Center
10:40PM 41.5564 -72.7208 56° Northeast 303 349 13,000  Level Boston Center
10:41PM 41.6022 -72.6272 57° Northeast 303 349 13,000 -180 Level Boston Center
10:42PM 41.6506 -72.5364 55° Northeast 299 344 12,700 -300 Descending Boston Center
10:42PM 41.6500 -72.5356 132° Southeast 303 349 12,700 -960 Level Boston Center
10:42PM 41.6758 -72.5081 38° Northeast 304 350 12,300 -1,020 Descending Boston Center
10:43PM 41.7200 -72.4592 40° Northeast 303 349 11,700 -900 Descending Boston Center
10:43PM 41.7392 -72.4383 39° Northeast 303 349 11,400 -1,020 Descending Boston Center
10:44PM 41.7828 -72.3892 40° Northeast 296 341 10,700 -1,020 Descending Boston Center
10:44PM 41.8006 -72.3678 42° Northeast 287 330 10,400 -600 Descending Boston Center
10:45PM 41.8425 -72.3228 39° Northeast 280 322 10,100 -360 Descending Boston Center
10:45PM 41.8694 -72.2914 41° Northeast 275 316 10,000  Descending Boston Center
10:46PM 41.8997 -72.2569 40° Northeast 273 314 10,100 60 Climbing Boston Center
10:47PM 41.9569 -72.1939 39° Northeast 269 310 10,100 -300 Level Boston Center
10:48PM 42.0194 -72.1242 40° Northeast 273 314 9,500 -900 Descending Boston Center
10:49PM 42.0772 -72.0583 40° Northeast 274 315 8,300 -1,140 Descending Boston Center
10:50PM 42.1336 -71.9956 40° Northeast 264 304 7,300 -1,080 Descending Boston Center
10:51PM 42.1883 -71.9364 39° Northeast 254 292 6,200 -1,080 Descending Boston Center
10:52PM 42.2417 -71.8789 39° Northeast 237 273 5,200 -600 Descending Boston Center
10:53PM 42.2914 -71.8239 39° Northeast 233 268 5,100 -60 Descending Boston Center
10:54PM 42.3375 -71.7717 40° Northeast 226 260 5,100 -300 Level Boston Center
10:55PM 42.3731 -71.6956 58° Northeast 231 266 4,600 -780 Descending Boston Center
10:56PM 42.3933 -71.6153 71° East 227 261 3,600 -840 Descending Boston Center
10:57PM 42.4119 -71.5356 72° East 224 258 3,000 -540 Descending Boston Center
10:58PM 42.4311 -71.4583 71° East 220 253 2,600 -420 Descending Boston Center